Weather at Gile Airport

Public forecast

Using degrees Celsius for public forecast. Weather courtesy of forecast.io.

Closest aviation weather report (METAR) to Gile Airport

Report is more than 6 hours old.

Closest report is Nampula Airport, 82.9 nm (153.5 km) NE.

2022/11/14 15:00 (retrieved 2 years ago)

FQNP 141500Z 08011KT 9999 FEW020 34/14 Q1011

Closest aviation forecast (TAF) to Gile Airport

Forecast is more than 12 hours old.

Closest forecast is Nampula Airport, 82.9 nm (153.5 km) NE.

2023/02/22 18:00 (retrieved 1 year ago)

TAF FQNP 221600Z 2218/2318 28008KT 9999 BKN020 FEW030CB TX30/2313Z TN23/2303Z PROB30 TEMPO 2219/2300 5000 -TSRA SCT015 FEW030CB TEMPO 2306/2315 5000 RADZ SCT012 FEW025CB BECMG 2313/2315 03010KT